sensor_id;sensor_type;location;lat;lon;timestamp;P1;durP1;ratioP1;P2;durP2;ratioP2
19830;SDS011;10076;52.008;4.708;2022-07-12T00:01:17;2.38;;;2.10;;
19830;SDS011;10076;52.008;4.708;2022-07-12T00:03:45;3.22;;;2.53;;
19830;SDS011;10076;52.008;4.708;2022-07-12T00:06:11;2.67;;;2.22;;
19830;SDS011;10076;52.008;4.708;2022-07-12T00:08:37;3.50;;;2.28;;
19830;SDS011;10076;52.008;4.708;2022-07-12T00:11:04;2.55;;;2.17;;
19830;SDS011;10076;52.008;4.708;2022-07-12T00:13:30;2.90;;;2.08;;
19830;SDS011;10076;52.008;4.708;2022-07-12T00:15:56;3.30;;;2.30;;
19830;SDS011;10076;52.008;4.708;2022-07-12T00:18:22;4.20;;;2.40;;
19830;SDS011;10076;52.008;4.708;2022-07-12T00:20:48;3.22;;;2.38;;
19830;SDS011;10076;52.008;4.708;2022-07-12T00:23:13;3.03;;;2.20;;
19830;SDS011;10076;52.008;4.708;2022-07-12T00:25:39;3.42;;;2.40;;
19830;SDS011;10076;52.008;4.708;2022-07-12T00:28:04;3.05;;;2.50;;
19830;SDS011;10076;52.008;4.708;2022-07-12T00:30:29;3.03;;;2.45;;
19830;SDS011;10076;52.008;4.708;2022-07-12T00:32:54;2.90;;;2.20;;
19830;SDS011;10076;52.008;4.708;2022-07-12T00:35:20;3.53;;;2.45;;
19830;SDS011;10076;52.008;4.708;2022-07-12T00:37:45;2.90;;;2.47;;
19830;SDS011;10076;52.008;4.708;2022-07-12T00:40:10;4.47;;;2.53;;
19830;SDS011;10076;52.008;4.708;2022-07-12T00:42:36;3.03;;;2.60;;
19830;SDS011;10076;52.008;4.708;2022-07-12T00:45:03;3.63;;;2.63;;
19830;SDS011;10076;52.008;4.708;2022-07-12T00:47:43;3.75;;;3.08;;
19830;SDS011;10076;52.008;4.708;2022-07-12T00:50:14;3.30;;;2.80;;
19830;SDS011;10076;52.008;4.708;2022-07-12T00:52:41;3.33;;;2.95;;
19830;SDS011;10076;52.008;4.708;2022-07-12T00:55:08;2.72;;;2.40;;
19830;SDS011;10076;52.008;4.708;2022-07-12T00:57:35;4.32;;;2.70;;
19830;SDS011;10076;52.008;4.708;2022-07-12T01:00:09;4.25;;;2.90;;
19830;SDS011;10076;52.008;4.708;2022-07-12T01:02:40;4.20;;;2.72;;
19830;SDS011;10076;52.008;4.708;2022-07-12T01:05:06;3.80;;;2.83;;
19830;SDS011;10076;52.008;4.708;2022-07-12T01:07:33;2.80;;;2.47;;
19830;SDS011;10076;52.008;4.708;2022-07-12T01:09:59;3.70;;;2.92;;
19830;SDS011;10076;52.008;4.708;2022-07-12T01:12:25;4.18;;;3.08;;
19830;SDS011;10076;52.008;4.708;2022-07-12T01:14:50;3.50;;;2.78;;
19830;SDS011;10076;52.008;4.708;2022-07-12T01:17:17;4.15;;;3.13;;
19830;SDS011;10076;52.008;4.708;2022-07-12T01:19:45;4.10;;;2.95;;
19830;SDS011;10076;52.008;4.708;2022-07-12T01:22:11;4.47;;;2.88;;
19830;SDS011;10076;52.008;4.708;2022-07-12T01:24:40;4.25;;;3.05;;
19830;SDS011;10076;52.008;4.708;2022-07-12T01:27:06;4.10;;;3.33;;
19830;SDS011;10076;52.008;4.708;2022-07-12T01:29:32;6.20;;;2.80;;
19830;SDS011;10076;52.008;4.708;2022-07-12T01:32:00;3.88;;;3.05;;
19830;SDS011;10076;52.008;4.708;2022-07-12T01:34:50;4.07;;;2.83;;
19830;SDS011;10076;52.008;4.708;2022-07-12T01:37:20;3.72;;;2.95;;
19830;SDS011;10076;52.008;4.708;2022-07-12T01:39:47;4.40;;;3.25;;
19830;SDS011;10076;52.008;4.708;2022-07-12T01:42:14;4.28;;;2.80;;
19830;SDS011;10076;52.008;4.708;2022-07-12T01:44:39;3.15;;;2.65;;
19830;SDS011;10076;52.008;4.708;2022-07-12T01:47:06;3.47;;;2.90;;
19830;SDS011;10076;52.008;4.708;2022-07-12T01:49:31;4.45;;;3.28;;
19830;SDS011;10076;52.008;4.708;2022-07-12T01:51:57;6.97;;;3.20;;
19830;SDS011;10076;52.008;4.708;2022-07-12T01:54:24;5.03;;;3.35;;
19830;SDS011;10076;52.008;4.708;2022-07-12T01:56:50;4.72;;;3.38;;
19830;SDS011;10076;52.008;4.708;2022-07-12T01:59:17;4.00;;;3.13;;
19830;SDS011;10076;52.008;4.708;2022-07-12T02:01:43;5.13;;;3.25;;
19830;SDS011;10076;52.008;4.708;2022-07-12T02:04:09;4.03;;;3.05;;
19830;SDS011;10076;52.008;4.708;2022-07-12T02:06:35;4.70;;;3.15;;
19830;SDS011;10076;52.008;4.708;2022-07-12T02:09:00;3.92;;;3.00;;
19830;SDS011;10076;52.008;4.708;2022-07-12T02:11:25;4.95;;;3.17;;
19830;SDS011;10076;52.008;4.708;2022-07-12T02:13:51;4.38;;;3.50;;
19830;SDS011;10076;52.008;4.708;2022-07-12T02:16:16;3.30;;;3.00;;
19830;SDS011;10076;52.008;4.708;2022-07-12T02:18:41;5.25;;;3.13;;
19830;SDS011;10076;52.008;4.708;2022-07-12T02:21:07;3.78;;;3.38;;
19830;SDS011;10076;52.008;4.708;2022-07-12T02:23:32;4.85;;;3.22;;
19830;SDS011;10076;52.008;4.708;2022-07-12T02:25:58;5.32;;;3.63;;
19830;SDS011;10076;52.008;4.708;2022-07-12T02:28:23;4.47;;;3.40;;
19830;SDS011;10076;52.008;4.708;2022-07-12T02:30:48;4.53;;;3.33;;
19830;SDS011;10076;52.008;4.708;2022-07-12T02:33:14;4.50;;;3.45;;
19830;SDS011;10076;52.008;4.708;2022-07-12T02:35:42;4.30;;;3.33;;
19830;SDS011;10076;52.008;4.708;2022-07-12T02:38:08;5.32;;;3.50;;
19830;SDS011;10076;52.008;4.708;2022-07-12T02:40:33;5.90;;;3.30;;
19830;SDS011;10076;52.008;4.708;2022-07-12T02:43:17;5.28;;;3.63;;
19830;SDS011;10076;52.008;4.708;2022-07-12T02:45:42;6.47;;;3.80;;
19830;SDS011;10076;52.008;4.708;2022-07-12T02:48:07;4.22;;;3.60;;
19830;SDS011;10076;52.008;4.708;2022-07-12T02:50:35;6.45;;;4.05;;
19830;SDS011;10076;52.008;4.708;2022-07-12T02:53:00;4.13;;;3.33;;
19830;SDS011;10076;52.008;4.708;2022-07-12T02:55:26;5.32;;;3.40;;
19830;SDS011;10076;52.008;4.708;2022-07-12T02:57:51;4.18;;;3.33;;
19830;SDS011;10076;52.008;4.708;2022-07-12T03:00:16;5.80;;;4.20;;
19830;SDS011;10076;52.008;4.708;2022-07-12T03:02:41;5.82;;;3.95;;
19830;SDS011;10076;52.008;4.708;2022-07-12T03:05:07;4.40;;;3.53;;
19830;SDS011;10076;52.008;4.708;2022-07-12T03:07:33;6.20;;;3.72;;
19830;SDS011;10076;52.008;4.708;2022-07-12T03:09:58;5.28;;;3.67;;
19830;SDS011;10076;52.008;4.708;2022-07-12T03:12:24;4.60;;;3.63;;
19830;SDS011;10076;52.008;4.708;2022-07-12T03:14:49;5.70;;;3.72;;
19830;SDS011;10076;52.008;4.708;2022-07-12T03:17:14;4.07;;;3.10;;
19830;SDS011;10076;52.008;4.708;2022-07-12T03:19:39;5.45;;;3.88;;
19830;SDS011;10076;52.008;4.708;2022-07-12T03:22:06;4.60;;;3.53;;
19830;SDS011;10076;52.008;4.708;2022-07-12T03:24:31;5.05;;;3.85;;
19830;SDS011;10076;52.008;4.708;2022-07-12T03:26:56;3.72;;;3.13;;
19830;SDS011;10076;52.008;4.708;2022-07-12T03:29:21;4.28;;;3.63;;
19830;SDS011;10076;52.008;4.708;2022-07-12T03:31:47;5.82;;;3.33;;
19830;SDS011;10076;52.008;4.708;2022-07-12T03:34:12;5.55;;;3.90;;
19830;SDS011;10076;52.008;4.708;2022-07-12T03:36:37;4.78;;;3.35;;
19830;SDS011;10076;52.008;4.708;2022-07-12T03:39:03;4.47;;;3.33;;
19830;SDS011;10076;52.008;4.708;2022-07-12T03:41:28;5.15;;;4.30;;
19830;SDS011;10076;52.008;4.708;2022-07-12T03:43:53;4.65;;;3.63;;
19830;SDS011;10076;52.008;4.708;2022-07-12T03:46:18;4.03;;;3.38;;
19830;SDS011;10076;52.008;4.708;2022-07-12T03:48:44;6.70;;;4.13;;
19830;SDS011;10076;52.008;4.708;2022-07-12T03:51:09;5.10;;;3.42;;
19830;SDS011;10076;52.008;4.708;2022-07-12T03:53:34;4.75;;;3.30;;
19830;SDS011;10076;52.008;4.708;2022-07-12T03:56:00;4.85;;;3.78;;
19830;SDS011;10076;52.008;4.708;2022-07-12T03:58:25;4.82;;;3.50;;
19830;SDS011;10076;52.008;4.708;2022-07-12T04:00:51;4.65;;;3.60;;
19830;SDS011;10076;52.008;4.708;2022-07-12T04:03:16;4.70;;;3.65;;
19830;SDS011;10076;52.008;4.708;2022-07-12T04:05:41;5.28;;;3.83;;
19830;SDS011;10076;52.008;4.708;2022-07-12T04:08:07;4.50;;;3.55;;
19830;SDS011;10076;52.008;4.708;2022-07-12T04:10:32;6.28;;;3.72;;
19830;SDS011;10076;52.008;4.708;2022-07-12T04:12:58;4.07;;;3.22;;
19830;SDS011;10076;52.008;4.708;2022-07-12T04:15:23;5.57;;;4.20;;
19830;SDS011;10076;52.008;4.708;2022-07-12T04:17:49;5.20;;;3.78;;
19830;SDS011;10076;52.008;4.708;2022-07-12T04:20:14;5.03;;;3.95;;
19830;SDS011;10076;52.008;4.708;2022-07-12T04:22:39;8.18;;;3.72;;
19830;SDS011;10076;52.008;4.708;2022-07-12T04:25:08;4.78;;;3.45;;
19830;SDS011;10076;52.008;4.708;2022-07-12T04:27:34;5.80;;;3.78;;
19830;SDS011;10076;52.008;4.708;2022-07-12T04:29:59;5.47;;;3.95;;
19830;SDS011;10076;52.008;4.708;2022-07-12T04:32:25;5.30;;;3.72;;
19830;SDS011;10076;52.008;4.708;2022-07-12T04:34:50;5.03;;;3.88;;
19830;SDS011;10076;52.008;4.708;2022-07-12T04:37:15;5.13;;;4.18;;
19830;SDS011;10076;52.008;4.708;2022-07-12T04:39:41;7.20;;;4.25;;
19830;SDS011;10076;52.008;4.708;2022-07-12T04:42:06;5.35;;;3.97;;
19830;SDS011;10076;52.008;4.708;2022-07-12T04:44:31;5.80;;;4.18;;
19830;SDS011;10076;52.008;4.708;2022-07-12T04:46:57;6.38;;;4.20;;
19830;SDS011;10076;52.008;4.708;2022-07-12T04:49:22;6.68;;;4.30;;
19830;SDS011;10076;52.008;4.708;2022-07-12T04:51:48;4.97;;;3.95;;
19830;SDS011;10076;52.008;4.708;2022-07-12T04:54:13;4.78;;;4.03;;
19830;SDS011;10076;52.008;4.708;2022-07-12T04:56:38;7.15;;;4.50;;
19830;SDS011;10076;52.008;4.708;2022-07-12T04:59:04;5.32;;;4.43;;
19830;SDS011;10076;52.008;4.708;2022-07-12T05:01:29;6.30;;;4.32;;
19830;SDS011;10076;52.008;4.708;2022-07-12T05:03:55;6.43;;;4.63;;
19830;SDS011;10076;52.008;4.708;2022-07-12T05:06:20;6.00;;;4.78;;
19830;SDS011;10076;52.008;4.708;2022-07-12T05:08:47;6.78;;;4.55;;
19830;SDS011;10076;52.008;4.708;2022-07-12T05:11:13;6.25;;;4.13;;
19830;SDS011;10076;52.008;4.708;2022-07-12T05:13:38;6.80;;;4.57;;
19830;SDS011;10076;52.008;4.708;2022-07-12T05:16:05;7.05;;;5.20;;
19830;SDS011;10076;52.008;4.708;2022-07-12T05:18:31;6.47;;;4.47;;
19830;SDS011;10076;52.008;4.708;2022-07-12T05:20:56;5.93;;;4.70;;
19830;SDS011;10076;52.008;4.708;2022-07-12T05:23:22;6.85;;;4.93;;
19830;SDS011;10076;52.008;4.708;2022-07-12T05:25:47;6.90;;;5.45;;
19830;SDS011;10076;52.008;4.708;2022-07-12T05:28:15;7.22;;;5.55;;
19830;SDS011;10076;52.008;4.708;2022-07-12T05:30:41;5.88;;;5.28;;
19830;SDS011;10076;52.008;4.708;2022-07-12T05:33:08;6.82;;;5.32;;
19830;SDS011;10076;52.008;4.708;2022-07-12T05:35:33;7.50;;;5.70;;
19830;SDS011;10076;52.008;4.708;2022-07-12T05:37:58;5.95;;;5.10;;
19830;SDS011;10076;52.008;4.708;2022-07-12T05:40:24;8.35;;;6.18;;
19830;SDS011;10076;52.008;4.708;2022-07-12T05:42:49;6.60;;;5.55;;
19830;SDS011;10076;52.008;4.708;2022-07-12T05:45:16;6.78;;;5.88;;
19830;SDS011;10076;52.008;4.708;2022-07-12T05:47:41;7.75;;;5.72;;
19830;SDS011;10076;52.008;4.708;2022-07-12T05:50:06;6.70;;;5.53;;
19830;SDS011;10076;52.008;4.708;2022-07-12T05:52:32;7.18;;;5.75;;
19830;SDS011;10076;52.008;4.708;2022-07-12T05:55:16;8.73;;;6.22;;
19830;SDS011;10076;52.008;4.708;2022-07-12T05:57:41;9.57;;;6.85;;
19830;SDS011;10076;52.008;4.708;2022-07-12T06:00:07;9.10;;;6.68;;
19830;SDS011;10076;52.008;4.708;2022-07-12T06:02:32;10.57;;;6.10;;
19830;SDS011;10076;52.008;4.708;2022-07-12T06:04:58;7.97;;;6.13;;
19830;SDS011;10076;52.008;4.708;2022-07-12T06:07:23;10.75;;;6.25;;
19830;SDS011;10076;52.008;4.708;2022-07-12T06:09:48;8.95;;;7.13;;
19830;SDS011;10076;52.008;4.708;2022-07-12T06:12:13;8.20;;;5.85;;
19830;SDS011;10076;52.008;4.708;2022-07-12T06:14:39;8.98;;;6.35;;
19830;SDS011;10076;52.008;4.708;2022-07-12T06:17:04;9.63;;;7.05;;
19830;SDS011;10076;52.008;4.708;2022-07-12T06:19:29;8.73;;;6.47;;
19830;SDS011;10076;52.008;4.708;2022-07-12T06:21:55;8.95;;;7.07;;
19830;SDS011;10076;52.008;4.708;2022-07-12T06:24:20;9.80;;;6.78;;
19830;SDS011;10076;52.008;4.708;2022-07-12T06:26:45;8.35;;;6.40;;
19830;SDS011;10076;52.008;4.708;2022-07-12T06:29:10;8.75;;;6.53;;
19830;SDS011;10076;52.008;4.708;2022-07-12T06:31:36;11.38;;;6.97;;
19830;SDS011;10076;52.008;4.708;2022-07-12T06:34:01;9.70;;;7.25;;
19830;SDS011;10076;52.008;4.708;2022-07-12T06:36:27;10.50;;;7.20;;
19830;SDS011;10076;52.008;4.708;2022-07-12T06:38:52;10.65;;;6.80;;
19830;SDS011;10076;52.008;4.708;2022-07-12T06:41:17;8.93;;;6.53;;
19830;SDS011;10076;52.008;4.708;2022-07-12T06:43:42;9.80;;;6.68;;
19830;SDS011;10076;52.008;4.708;2022-07-12T06:46:08;9.52;;;7.18;;
19830;SDS011;10076;52.008;4.708;2022-07-12T06:48:33;10.88;;;7.25;;
19830;SDS011;10076;52.008;4.708;2022-07-12T06:50:58;8.75;;;6.90;;
19830;SDS011;10076;52.008;4.708;2022-07-12T06:53:23;8.50;;;6.57;;
19830;SDS011;10076;52.008;4.708;2022-07-12T06:55:49;11.00;;;6.88;;
19830;SDS011;10076;52.008;4.708;2022-07-12T06:58:15;8.90;;;6.57;;
19830;SDS011;10076;52.008;4.708;2022-07-12T07:00:41;9.43;;;7.47;;
19830;SDS011;10076;52.008;4.708;2022-07-12T07:03:07;10.25;;;6.85;;
19830;SDS011;10076;52.008;4.708;2022-07-12T07:05:32;9.27;;;7.25;;
19830;SDS011;10076;52.008;4.708;2022-07-12T07:07:57;8.88;;;6.70;;
19830;SDS011;10076;52.008;4.708;2022-07-12T07:10:23;9.20;;;7.05;;
19830;SDS011;10076;52.008;4.708;2022-07-12T07:12:48;10.13;;;6.90;;
19830;SDS011;10076;52.008;4.708;2022-07-12T07:15:13;10.32;;;6.47;;
19830;SDS011;10076;52.008;4.708;2022-07-12T07:17:40;8.82;;;6.70;;
19830;SDS011;10076;52.008;4.708;2022-07-12T07:20:07;8.98;;;6.75;;
19830;SDS011;10076;52.008;4.708;2022-07-12T07:22:34;8.70;;;6.50;;
19830;SDS011;10076;52.008;4.708;2022-07-12T07:24:59;9.25;;;7.05;;
19830;SDS011;10076;52.008;4.708;2022-07-12T07:27:24;10.10;;;6.90;;
19830;SDS011;10076;52.008;4.708;2022-07-12T07:29:50;9.18;;;7.13;;
19830;SDS011;10076;52.008;4.708;2022-07-12T07:32:34;8.50;;;6.40;;
19830;SDS011;10076;52.008;4.708;2022-07-12T07:34:59;9.90;;;7.03;;
19830;SDS011;10076;52.008;4.708;2022-07-12T07:37:24;8.30;;;6.18;;
19830;SDS011;10076;52.008;4.708;2022-07-12T07:39:49;8.30;;;6.50;;
19830;SDS011;10076;52.008;4.708;2022-07-12T07:42:15;9.00;;;6.35;;
19830;SDS011;10076;52.008;4.708;2022-07-12T07:44:41;9.75;;;6.43;;
19830;SDS011;10076;52.008;4.708;2022-07-12T07:47:06;8.80;;;6.18;;
19830;SDS011;10076;52.008;4.708;2022-07-12T07:49:32;7.13;;;5.88;;
19830;SDS011;10076;52.008;4.708;2022-07-12T07:51:57;9.02;;;6.38;;
19830;SDS011;10076;52.008;4.708;2022-07-12T07:54:22;8.40;;;6.07;;
19830;SDS011;10076;52.008;4.708;2022-07-12T07:56:47;9.48;;;5.90;;
19830;SDS011;10076;52.008;4.708;2022-07-12T07:59:13;10.23;;;6.95;;
19830;SDS011;10076;52.008;4.708;2022-07-12T08:01:38;7.10;;;5.35;;
19830;SDS011;10076;52.008;4.708;2022-07-12T08:04:19;7.97;;;5.05;;
19830;SDS011;10076;52.008;4.708;2022-07-12T08:06:46;5.50;;;3.97;;
19830;SDS011;10076;52.008;4.708;2022-07-12T08:09:13;6.45;;;4.30;;
19830;SDS011;10076;52.008;4.708;2022-07-12T08:11:38;7.60;;;5.32;;
19830;SDS011;10076;52.008;4.708;2022-07-12T08:14:04;5.75;;;4.53;;
19830;SDS011;10076;52.008;4.708;2022-07-12T08:16:31;5.43;;;4.40;;
19830;SDS011;10076;52.008;4.708;2022-07-12T08:18:57;5.95;;;3.65;;
19830;SDS011;10076;52.008;4.708;2022-07-12T08:21:23;5.13;;;4.20;;
19830;SDS011;10076;52.008;4.708;2022-07-12T08:23:48;4.20;;;3.80;;
19830;SDS011;10076;52.008;4.708;2022-07-12T08:26:14;6.07;;;4.15;;
19830;SDS011;10076;52.008;4.708;2022-07-12T08:28:39;7.88;;;4.45;;
19830;SDS011;10076;52.008;4.708;2022-07-12T08:31:05;7.10;;;4.28;;
19830;SDS011;10076;52.008;4.708;2022-07-12T08:33:30;6.35;;;4.53;;
19830;SDS011;10076;52.008;4.708;2022-07-12T08:35:56;5.53;;;3.78;;
19830;SDS011;10076;52.008;4.708;2022-07-12T08:38:21;6.03;;;3.45;;
19830;SDS011;10076;52.008;4.708;2022-07-12T08:40:46;4.97;;;3.83;;
19830;SDS011;10076;52.008;4.708;2022-07-12T08:43:12;6.63;;;3.83;;
19830;SDS011;10076;52.008;4.708;2022-07-12T08:45:37;4.85;;;3.10;;
19830;SDS011;10076;52.008;4.708;2022-07-12T08:48:05;5.65;;;4.13;;
19830;SDS011;10076;52.008;4.708;2022-07-12T08:50:32;4.80;;;3.60;;
19830;SDS011;10076;52.008;4.708;2022-07-12T08:52:57;4.10;;;3.05;;
19830;SDS011;10076;52.008;4.708;2022-07-12T08:55:24;4.70;;;3.40;;
19830;SDS011;10076;52.008;4.708;2022-07-12T08:57:51;4.38;;;3.35;;
19830;SDS011;10076;52.008;4.708;2022-07-12T09:00:18;3.90;;;3.13;;
19830;SDS011;10076;52.008;4.708;2022-07-12T09:05:10;3.80;;;2.95;;
19830;SDS011;10076;52.008;4.708;2022-07-12T09:07:36;5.38;;;3.17;;
19830;SDS011;10076;52.008;4.708;2022-07-12T09:10:02;6.45;;;4.18;;
19830;SDS011;10076;52.008;4.708;2022-07-12T09:12:29;4.05;;;3.17;;
19830;SDS011;10076;52.008;4.708;2022-07-12T09:14:55;5.13;;;3.42;;
19830;SDS011;10076;52.008;4.708;2022-07-12T09:17:34;4.80;;;3.40;;
19830;SDS011;10076;52.008;4.708;2022-07-12T09:20:00;3.90;;;3.10;;
19830;SDS011;10076;52.008;4.708;2022-07-12T09:22:25;5.60;;;3.58;;
19830;SDS011;10076;52.008;4.708;2022-07-12T09:24:50;5.40;;;4.25;;
19830;SDS011;10076;52.008;4.708;2022-07-12T09:27:15;9.23;;;3.90;;
19830;SDS011;10076;52.008;4.708;2022-07-12T09:29:48;6.30;;;4.43;;
19830;SDS011;10076;52.008;4.708;2022-07-12T09:32:14;7.18;;;3.80;;
19830;SDS011;10076;52.008;4.708;2022-07-12T09:34:58;4.15;;;3.15;;
19830;SDS011;10076;52.008;4.708;2022-07-12T09:37:43;4.60;;;3.30;;
19830;SDS011;10076;52.008;4.708;2022-07-12T09:40:09;5.20;;;3.53;;
19830;SDS011;10076;52.008;4.708;2022-07-12T09:42:35;4.95;;;3.72;;
19830;SDS011;10076;52.008;4.708;2022-07-12T09:45:00;6.60;;;3.53;;
19830;SDS011;10076;52.008;4.708;2022-07-12T09:47:26;4.35;;;3.45;;
19830;SDS011;10076;52.008;4.708;2022-07-12T09:49:52;7.93;;;4.28;;
19830;SDS011;10076;52.008;4.708;2022-07-12T09:52:22;4.32;;;3.22;;
19830;SDS011;10076;52.008;4.708;2022-07-12T09:54:50;3.33;;;2.78;;
19830;SDS011;10076;52.008;4.708;2022-07-12T09:57:21;4.43;;;3.75;;
19830;SDS011;10076;52.008;4.708;2022-07-12T09:59:57;6.35;;;4.18;;
19830;SDS011;10076;52.008;4.708;2022-07-12T10:02:23;5.32;;;3.70;;
19830;SDS011;10076;52.008;4.708;2022-07-12T10:04:50;4.60;;;3.67;;
19830;SDS011;10076;52.008;4.708;2022-07-12T10:07:16;5.53;;;3.50;;
19830;SDS011;10076;52.008;4.708;2022-07-12T10:09:42;9.48;;;5.10;;
19830;SDS011;10076;52.008;4.708;2022-07-12T10:12:15;6.78;;;4.43;;
19830;SDS011;10076;52.008;4.708;2022-07-12T10:14:41;7.07;;;4.55;;
19830;SDS011;10076;52.008;4.708;2022-07-12T10:17:08;5.97;;;4.45;;
19830;SDS011;10076;52.008;4.708;2022-07-12T10:19:35;5.03;;;4.22;;
19830;SDS011;10076;52.008;4.708;2022-07-12T10:22:02;5.50;;;4.18;;
19830;SDS011;10076;52.008;4.708;2022-07-12T10:26:57;5.40;;;4.13;;
19830;SDS011;10076;52.008;4.708;2022-07-12T10:29:49;5.20;;;4.13;;
19830;SDS011;10076;52.008;4.708;2022-07-12T10:32:21;4.45;;;3.60;;
19830;SDS011;10076;52.008;4.708;2022-07-12T10:35:00;6.60;;;3.75;;
19830;SDS011;10076;52.008;4.708;2022-07-12T10:37:33;4.18;;;3.55;;
19830;SDS011;10076;52.008;4.708;2022-07-12T10:40:16;4.95;;;3.25;;
19830;SDS011;10076;52.008;4.708;2022-07-12T10:45:42;4.63;;;3.25;;
19830;SDS011;10076;52.008;4.708;2022-07-12T10:53:29;4.30;;;2.70;;
19830;SDS011;10076;52.008;4.708;2022-07-12T10:58:43;6.68;;;3.28;;
19830;SDS011;10076;52.008;4.708;2022-07-12T11:01:23;5.45;;;3.70;;
19830;SDS011;10076;52.008;4.708;2022-07-12T11:03:49;4.20;;;3.70;;
19830;SDS011;10076;52.008;4.708;2022-07-12T11:06:18;5.03;;;3.88;;
19830;SDS011;10076;52.008;4.708;2022-07-12T11:08:46;5.13;;;4.47;;
19830;SDS011;10076;52.008;4.708;2022-07-12T11:11:12;6.47;;;4.22;;
19830;SDS011;10076;52.008;4.708;2022-07-12T11:13:38;3.80;;;3.22;;
19830;SDS011;10076;52.008;4.708;2022-07-12T11:16:03;4.32;;;3.28;;
19830;SDS011;10076;52.008;4.708;2022-07-12T11:18:29;3.92;;;3.08;;
19830;SDS011;10076;52.008;4.708;2022-07-12T11:20:56;3.10;;;2.80;;
19830;SDS011;10076;52.008;4.708;2022-07-12T11:23:26;3.88;;;3.17;;
19830;SDS011;10076;52.008;4.708;2022-07-12T11:25:56;3.47;;;2.85;;
19830;SDS011;10076;52.008;4.708;2022-07-12T11:28:32;4.30;;;3.10;;
19830;SDS011;10076;52.008;4.708;2022-07-12T11:31:02;2.90;;;2.63;;
19830;SDS011;10076;52.008;4.708;2022-07-12T11:33:37;4.18;;;2.35;;
19830;SDS011;10076;52.008;4.708;2022-07-12T11:36:06;3.58;;;3.17;;
19830;SDS011;10076;52.008;4.708;2022-07-12T11:38:33;3.28;;;2.63;;
19830;SDS011;10076;52.008;4.708;2022-07-12T11:41:00;2.83;;;2.20;;
19830;SDS011;10076;52.008;4.708;2022-07-12T11:43:27;2.65;;;2.30;;
19830;SDS011;10076;52.008;4.708;2022-07-12T11:45:53;3.05;;;2.20;;
19830;SDS011;10076;52.008;4.708;2022-07-12T11:48:19;2.58;;;2.35;;
19830;SDS011;10076;52.008;4.708;2022-07-12T11:50:46;3.70;;;3.28;;
19830;SDS011;10076;52.008;4.708;2022-07-12T11:53:16;3.95;;;2.95;;
19830;SDS011;10076;52.008;4.708;2022-07-12T11:55:51;2.92;;;2.28;;
19830;SDS011;10076;52.008;4.708;2022-07-12T11:58:22;4.20;;;2.58;;
19830;SDS011;10076;52.008;4.708;2022-07-12T12:00:48;3.22;;;2.28;;
19830;SDS011;10076;52.008;4.708;2022-07-12T12:03:15;3.53;;;2.90;;
19830;SDS011;10076;52.008;4.708;2022-07-12T12:05:41;2.55;;;2.35;;
19830;SDS011;10076;52.008;4.708;2022-07-12T12:08:07;3.30;;;2.00;;
19830;SDS011;10076;52.008;4.708;2022-07-12T12:10:35;3.00;;;2.03;;
19830;SDS011;10076;52.008;4.708;2022-07-12T12:13:01;3.15;;;2.22;;
19830;SDS011;10076;52.008;4.708;2022-07-12T12:15:31;2.10;;;1.90;;
19830;SDS011;10076;52.008;4.708;2022-07-12T12:20:30;3.70;;;2.08;;
19830;SDS011;10076;52.008;4.708;2022-07-12T12:22:57;3.03;;;2.45;;
19830;SDS011;10076;52.008;4.708;2022-07-12T12:25:25;3.10;;;2.28;;
19830;SDS011;10076;52.008;4.708;2022-07-12T12:27:57;2.33;;;2.13;;
19830;SDS011;10076;52.008;4.708;2022-07-12T12:30:27;2.90;;;2.35;;
19830;SDS011;10076;52.008;4.708;2022-07-12T12:32:58;3.20;;;2.90;;
19830;SDS011;10076;52.008;4.708;2022-07-12T12:35:31;3.40;;;2.85;;
19830;SDS011;10076;52.008;4.708;2022-07-12T12:37:59;3.10;;;2.42;;
19830;SDS011;10076;52.008;4.708;2022-07-12T12:40:26;3.90;;;3.03;;
19830;SDS011;10076;52.008;4.708;2022-07-12T12:43:04;6.38;;;3.10;;
19830;SDS011;10076;52.008;4.708;2022-07-12T12:45:49;4.07;;;3.50;;
19830;SDS011;10076;52.008;4.708;2022-07-12T12:48:17;5.57;;;3.45;;
19830;SDS011;10076;52.008;4.708;2022-07-12T12:50:45;3.10;;;2.80;;
19830;SDS011;10076;52.008;4.708;2022-07-12T12:55:44;3.17;;;2.38;;
19830;SDS011;10076;52.008;4.708;2022-07-12T12:58:12;3.17;;;2.35;;
19830;SDS011;10076;52.008;4.708;2022-07-12T13:00:39;3.38;;;2.28;;
19830;SDS011;10076;52.008;4.708;2022-07-12T13:03:07;3.17;;;2.30;;
19830;SDS011;10076;52.008;4.708;2022-07-12T13:05:33;3.70;;;2.72;;
19830;SDS011;10076;52.008;4.708;2022-07-12T13:07:59;3.05;;;2.72;;
19830;SDS011;10076;52.008;4.708;2022-07-12T13:10:25;12.60;;;7.88;;
19830;SDS011;10076;52.008;4.708;2022-07-12T13:12:51;3.60;;;3.15;;
19830;SDS011;10076;52.008;4.708;2022-07-12T13:15:17;2.78;;;2.50;;
19830;SDS011;10076;52.008;4.708;2022-07-12T13:17:42;2.63;;;2.42;;
19830;SDS011;10076;52.008;4.708;2022-07-12T13:20:08;3.30;;;2.60;;
19830;SDS011;10076;52.008;4.708;2022-07-12T13:22:34;3.33;;;2.85;;
19830;SDS011;10076;52.008;4.708;2022-07-12T13:24:59;3.55;;;2.40;;
19830;SDS011;10076;52.008;4.708;2022-07-12T13:27:25;3.70;;;3.13;;
19830;SDS011;10076;52.008;4.708;2022-07-12T13:29:54;3.00;;;2.70;;
19830;SDS011;10076;52.008;4.708;2022-07-12T13:32:19;3.50;;;2.70;;
19830;SDS011;10076;52.008;4.708;2022-07-12T13:34:48;3.13;;;2.60;;
19830;SDS011;10076;52.008;4.708;2022-07-12T13:37:14;2.85;;;2.55;;
19830;SDS011;10076;52.008;4.708;2022-07-12T13:39:40;3.30;;;2.70;;
19830;SDS011;10076;52.008;4.708;2022-07-12T13:42:24;3.80;;;3.40;;
19830;SDS011;10076;52.008;4.708;2022-07-12T13:44:50;4.18;;;3.50;;
19830;SDS011;10076;52.008;4.708;2022-07-12T13:47:16;3.78;;;3.15;;
19830;SDS011;10076;52.008;4.708;2022-07-12T13:49:41;3.05;;;2.50;;
19830;SDS011;10076;52.008;4.708;2022-07-12T13:52:07;2.58;;;2.30;;
19830;SDS011;10076;52.008;4.708;2022-07-12T13:54:32;2.42;;;2.20;;
19830;SDS011;10076;52.008;4.708;2022-07-12T13:56:58;2.47;;;2.28;;
19830;SDS011;10076;52.008;4.708;2022-07-12T13:59:23;2.50;;;2.30;;
19830;SDS011;10076;52.008;4.708;2022-07-12T14:01:49;3.90;;;2.25;;
19830;SDS011;10076;52.008;4.708;2022-07-12T14:04:14;4.13;;;2.33;;
19830;SDS011;10076;52.008;4.708;2022-07-12T14:06:39;2.83;;;2.60;;
19830;SDS011;10076;52.008;4.708;2022-07-12T14:09:05;3.38;;;2.80;;
19830;SDS011;10076;52.008;4.708;2022-07-12T14:11:31;4.22;;;2.50;;
19830;SDS011;10076;52.008;4.708;2022-07-12T14:13:56;2.90;;;2.28;;
19830;SDS011;10076;52.008;4.708;2022-07-12T14:16:22;5.38;;;2.65;;
19830;SDS011;10076;52.008;4.708;2022-07-12T14:18:47;4.03;;;2.45;;
19830;SDS011;10076;52.008;4.708;2022-07-12T14:21:12;2.80;;;2.60;;
19830;SDS011;10076;52.008;4.708;2022-07-12T14:23:37;2.58;;;2.20;;
19830;SDS011;10076;52.008;4.708;2022-07-12T14:26:03;5.13;;;2.33;;
19830;SDS011;10076;52.008;4.708;2022-07-12T14:28:30;2.22;;;1.95;;
19830;SDS011;10076;52.008;4.708;2022-07-12T14:30:55;2.30;;;2.10;;
19830;SDS011;10076;52.008;4.708;2022-07-12T14:33:20;1.98;;;1.73;;
19830;SDS011;10076;52.008;4.708;2022-07-12T14:35:46;3.00;;;1.73;;
19830;SDS011;10076;52.008;4.708;2022-07-12T14:38:11;2.15;;;1.70;;
19830;SDS011;10076;52.008;4.708;2022-07-12T14:40:37;2.35;;;1.83;;
19830;SDS011;10076;52.008;4.708;2022-07-12T14:43:03;1.90;;;1.70;;
19830;SDS011;10076;52.008;4.708;2022-07-12T14:45:28;2.00;;;1.80;;
19830;SDS011;10076;52.008;4.708;2022-07-12T14:47:53;1.63;;;1.52;;
19830;SDS011;10076;52.008;4.708;2022-07-12T14:50:19;3.42;;;1.90;;
19830;SDS011;10076;52.008;4.708;2022-07-12T14:52:44;2.20;;;1.80;;
19830;SDS011;10076;52.008;4.708;2022-07-12T14:55:09;3.38;;;2.50;;
19830;SDS011;10076;52.008;4.708;2022-07-12T14:57:35;1.75;;;1.60;;
19830;SDS011;10076;52.008;4.708;2022-07-12T15:00:01;2.50;;;1.80;;
19830;SDS011;10076;52.008;4.708;2022-07-12T15:02:26;1.70;;;1.60;;
19830;SDS011;10076;52.008;4.708;2022-07-12T15:04:53;2.78;;;2.00;;
19830;SDS011;10076;52.008;4.708;2022-07-12T15:07:18;2.40;;;1.88;;